Terminal Aerodrome Forecast
Issued by NWS Jackson, MS

Home | Current Version | Previous Version | Text Only | Print | Product List | Glossary On
Versions: 1 2 3 4 5 6 7 8 9 10 11 12 13 14 15 16 17
000
FTUS44 KJAN 201700 CCA
TAFGLH
TAF COR
KGLH 201753Z 2018/2118 04005KT P6SM SCT010 BKN070
     FM202000 07005KT P6SM BKN035
     FM210900 11007KT P6SM OVC025=

USA.gov is the U.S. government's official web portal to all federal, state and local government web resources and services.